Berta — V2BQ6 — position and weather

sailwx.info

Track history (hours):
 
Tides and Currents Weather Stations Pressure Air Temp Water Temp Dewpoint Dewpoint Depression Visibility Wind Speed Wind Dir Waves Ship Positions

Berta

Last reported at 2014-Sep-17 02:04 UTC. Time now 2014-Sep-18 21:44 UTC.
Position N 58°22' E 005°21'.

Length 107 m; draft 6.4 m.

Type: Cargo ship. MMSI: 304586000.

Date/timePositionNaut miles runAvg speedWind from/ knotsBaromVisibWave heightAir tempDewpointWater temp
2014-Sep-17 02:04N 58°22' E 005°21'814.9
2014-Sep-17 01:33N 58°16' E 005°28'16214.3
2014-Sep-16 14:15N 55°40' E 006°50'1114.3
2014-Sep-16 13:29N 55°30' E 006°56'1514.2
2014-Sep-16 12:25N 55°15' E 007°03'3414.4
2014-Sep-16 10:05N 54°43' E 007°19'814.7
2014-Sep-16 09:33N 54°35' E 007°23'1515.2
2014-Sep-16 08:34N 54°21' E 007°30'1515.4
2014-Sep-16 07:33N 54°08' E 007°46'1616.0
2014-Sep-16 06:33N 54°01' E 008°10'1615.9
2014-Sep-16 05:34N 53°58' E 008°36'1312.6
2014-Sep-16 04:33N 53°51' E 008°54'1111.3
2014-Sep-16 03:33N 53°53' E 009°12'1211.6
2014-Sep-16 02:33N 53°44' E 009°26'1413.8
2014-Sep-16 01:34N 53°34' E 009°41'10 9.7
2014-Sep-16 00:33N 53°31' E 009°56'0 0.2
2014-Sep-15 23:31N 53°31' E 009°56'0 0.0
2014-Sep-15 22:31N 53°31' E 009°56'0 0.0
2014-Sep-15 21:25N 53°31' E 009°56'0 0.0
2014-Sep-15 20:31N 53°31' E 009°56'0 0.0
2014-Sep-15 19:31N 53°31' E 009°56'0 0.0
2014-Sep-15 18:31N 53°31' E 009°56'0 0.0
2014-Sep-15 17:32N 53°31' E 009°56'1 1.4
2014-Sep-15 16:33N 53°32' E 009°55'0 0.0
2014-Sep-15 15:33N 53°32' E 009°55'0 0.0
2014-Sep-15 14:34N 53°32' E 009°55'2 1.7
2014-Sep-15 13:33N 53°33' E 009°53'5 5.2
2014-Sep-15 12:33N 53°34' E 009°44'1010.1
2014-Sep-15 11:34N 53°40' E 009°31'1111.0
2014-Sep-15 10:33N 53°49' E 009°21'10 9.6
2014-Sep-15 09:34N 53°53' E 009°06'1010.1
2014-Sep-15 08:34N 53°50' E 008°49'10 9.6
2014-Sep-15 07:34N 53°57' E 008°38'1110.6
2014-Sep-15 06:33N 53°59' E 008°20'1110.8
2014-Sep-15 05:33N 54°01' E 008°02'1110.6
2014-Sep-15 04:33N 54°06' E 007°46'1111.0
2014-Sep-15 03:33N 54°12' E 007°31'1212.0
2014-Sep-15 02:33N 54°24' E 007°25'1212.2
2014-Sep-15 01:34N 54°35' E 007°19'  
2014-Sep-12 14:20N 63°08' E 007°07'20 0.8
2014-Sep-11 13:07N 63°13' E 007°51'25113.3
2014-Sep-10 18:10N 59°15' E 005°02'914.0
2014-Sep-10 17:32N 59°07' E 005°10'1111.2
2014-Sep-10 16:33N 59°17' E 005°20'3 0.5
2014-Sep-10 10:08N 59°14' E 005°21'813.4
2014-Sep-10 09:33N 59°07' E 005°21'1413.9
2014-Sep-10 08:33N 58°53' E 005°20'1913.7
2014-Sep-10 07:09N 58°34' E 005°21'1014.3
2014-Sep-10 06:27N 58°23' E 005°23'1213.8
2014-Sep-10 05:33N 58°12' E 005°33'16511.8
2014-Sep-09 15:32N 55°35' E 007°05'1212.2
2014-Sep-09 14:32N 55°23' E 007°12'1612.6
2014-Sep-09 13:13N 55°07' E 007°20'2413.0
2014-Sep-09 11:22N 54°43' E 007°25'1012.8
2014-Sep-09 10:33N 54°33' E 007°27'1312.6
2014-Sep-09 09:33N 54°21' E 007°32'1212.1
2014-Sep-09 08:33N 54°11' E 007°44'1211.8
2014-Sep-09 07:33N 54°04' E 007°60'1212.0
2014-Sep-09 06:33N 53°60' E 008°19'1414.4
2014-Sep-09 05:33N 53°54' E 008°41'1414.4
2014-Sep-09 04:33N 53°53' E 009°06'1312.8
2014-Sep-09 03:31N 53°45' E 009°24'1313.6
2014-Sep-09 02:33N 53°35' E 009°38'1110.6
2014-Sep-09 01:33N 53°33' E 009°55'1 1.2
2014-Sep-09 00:33N 53°32' E 009°57'0 0.0
2014-Sep-08 23:33N 53°32' E 009°57'0 0.0
2014-Sep-08 22:33N 53°32' E 009°57'0 0.0
2014-Sep-08 21:33N 53°32' E 009°57'2 1.6
2014-Sep-08 20:33N 53°31' E 009°56'0 0.1
2014-Sep-08 19:33N 53°31' E 009°56'0 0.0
2014-Sep-08 18:33N 53°31' E 009°56'0 0.0
2014-Sep-08 17:33N 53°31' E 009°56'0 0.0
2014-Sep-08 16:33N 53°31' E 009°56'2 1.9
2014-Sep-08 15:33N 53°32' E 009°54'0 0.1
2014-Sep-08 14:33N 53°32' E 009°55'0 0.0
2014-Sep-08 13:27N 53°32' E 009°55'0 0.0
2014-Sep-08 12:33N 53°32' E 009°55'0 0.0
2014-Sep-08 11:33N 53°32' E 009°55'0 0.0
2014-Sep-08 10:33N 53°32' E 009°55'0 0.0
2014-Sep-08 09:33N 53°32' E 009°55'0 0.0
2014-Sep-08 08:33N 53°32' E 009°55'0 0.0
2014-Sep-08 07:33N 53°32' E 009°55'0 0.0
2014-Sep-08 06:33N 53°32' E 009°55'0 0.0
2014-Sep-08 05:33N 53°32' E 009°55'2 1.6
2014-Sep-08 04:33N 53°32' E 009°57'0 0.3
2014-Sep-08 03:33N 53°32' E 009°58'0 0.0
2014-Sep-08 02:30N 53°32' E 009°58'0 0.0
2014-Sep-08 01:30N 53°32' E 009°58'0 0.0
2014-Sep-08 00:30N 53°32' E 009°58'0 0.0
2014-Sep-07 23:33N 53°32' E 009°58'0 0.0
2014-Sep-07 22:30N 53°32' E 009°58'0 0.0
2014-Sep-07 21:33N 53°32' E 009°58'0 0.0
2014-Sep-07 20:30N 53°32' E 009°58'0 0.0
2014-Sep-07 19:30N 53°32' E 009°58'0 0.0
2014-Sep-07 18:30N 53°32' E 009°58'0 0.0
2014-Sep-07 17:33N 53°32' E 009°58'0 0.0
2014-Sep-07 16:30N 53°32' E 009°58'0 0.0
2014-Sep-07 15:30N 53°32' E 009°58'0 0.0
2014-Sep-07 14:33N 53°32' E 009°58'0 0.0
2014-Sep-07 13:33N 53°32' E 009°58'0 0.0
2014-Sep-07 12:33N 53°32' E 009°58'0 0.0
2014-Sep-07 11:30N 53°32' E 009°58'0 0.0
2014-Sep-07 10:30N 53°32' E 009°58'0 0.0
2014-Sep-07 09:30N 53°32' E 009°58'0 0.0
2014-Sep-07 08:33N 53°32' E 009°58'0 0.0
2014-Sep-07 07:33N 53°32' E 009°58'0 0.0
2014-Sep-07 06:30N 53°32' E 009°58'0 0.0
2014-Sep-07 05:30N 53°32' E 009°58'0 0.0
2014-Sep-07 04:30N 53°32' E 009°58'0 0.0
2014-Sep-07 03:30N 53°32' E 009°58'0 0.0
2014-Sep-07 02:18N 53°32' E 009°58'  
Track history (hours):
 
Tides and Currents Weather Stations Pressure Air Temp Water Temp Dewpoint Dewpoint Depression Visibility Wind Speed Wind Dir Waves Ship Positions

Berta

Last reported at 2014-Sep-17 02:04 UTC. Time now 2014-Sep-18 21:44 UTC.
Position N 58°22' E 005°21'.

Length 107 m; draft 6.4 m.

Type: Cargo ship. MMSI: 304586000.

Date/timePositionNaut miles runAvg speedWind from/ knotsBaromVisibWave heightAir tempDewpointWater temp
2014-Sep-17 02:04N 58°22' E 005°21'814.9
2014-Sep-17 01:33N 58°16' E 005°28'16214.3
2014-Sep-16 14:15N 55°40' E 006°50'1114.3
2014-Sep-16 13:29N 55°30' E 006°56'1514.2
2014-Sep-16 12:25N 55°15' E 007°03'3414.4
2014-Sep-16 10:05N 54°43' E 007°19'814.7
2014-Sep-16 09:33N 54°35' E 007°23'1515.2
2014-Sep-16 08:34N 54°21' E 007°30'1515.4
2014-Sep-16 07:33N 54°08' E 007°46'1616.0
2014-Sep-16 06:33N 54°01' E 008°10'1615.9
2014-Sep-16 05:34N 53°58' E 008°36'1312.6
2014-Sep-16 04:33N 53°51' E 008°54'1111.3
2014-Sep-16 03:33N 53°53' E 009°12'1211.6
2014-Sep-16 02:33N 53°44' E 009°26'1413.8
2014-Sep-16 01:34N 53°34' E 009°41'10 9.7
2014-Sep-16 00:33N 53°31' E 009°56'0 0.2
2014-Sep-15 23:31N 53°31' E 009°56'0 0.0
2014-Sep-15 22:31N 53°31' E 009°56'0 0.0
2014-Sep-15 21:25N 53°31' E 009°56'0 0.0
2014-Sep-15 20:31N 53°31' E 009°56'0 0.0
2014-Sep-15 19:31N 53°31' E 009°56'0 0.0
2014-Sep-15 18:31N 53°31' E 009°56'0 0.0
2014-Sep-15 17:32N 53°31' E 009°56'1 1.4
2014-Sep-15 16:33N 53°32' E 009°55'0 0.0
2014-Sep-15 15:33N 53°32' E 009°55'0 0.0
2014-Sep-15 14:34N 53°32' E 009°55'2 1.7
2014-Sep-15 13:33N 53°33' E 009°53'5 5.2
2014-Sep-15 12:33N 53°34' E 009°44'1010.1
2014-Sep-15 11:34N 53°40' E 009°31'1111.0
2014-Sep-15 10:33N 53°49' E 009°21'10 9.6
2014-Sep-15 09:34N 53°53' E 009°06'1010.1
2014-Sep-15 08:34N 53°50' E 008°49'10 9.6
2014-Sep-15 07:34N 53°57' E 008°38'1110.6
2014-Sep-15 06:33N 53°59' E 008°20'1110.8
2014-Sep-15 05:33N 54°01' E 008°02'1110.6
2014-Sep-15 04:33N 54°06' E 007°46'1111.0
2014-Sep-15 03:33N 54°12' E 007°31'1212.0
2014-Sep-15 02:33N 54°24' E 007°25'1212.2
2014-Sep-15 01:34N 54°35' E 007°19'  
2014-Sep-12 14:20N 63°08' E 007°07'20 0.8
2014-Sep-11 13:07N 63°13' E 007°51'25113.3
2014-Sep-10 18:10N 59°15' E 005°02'914.0
2014-Sep-10 17:32N 59°07' E 005°10'1111.2
2014-Sep-10 16:33N 59°17' E 005°20'3 0.5
2014-Sep-10 10:08N 59°14' E 005°21'813.4
2014-Sep-10 09:33N 59°07' E 005°21'1413.9
2014-Sep-10 08:33N 58°53' E 005°20'1913.7
2014-Sep-10 07:09N 58°34' E 005°21'1014.3
2014-Sep-10 06:27N 58°23' E 005°23'1213.8
2014-Sep-10 05:33N 58°12' E 005°33'16511.8
2014-Sep-09 15:32N 55°35' E 007°05'1212.2
2014-Sep-09 14:32N 55°23' E 007°12'1612.6
2014-Sep-09 13:13N 55°07' E 007°20'2413.0
2014-Sep-09 11:22N 54°43' E 007°25'1012.8
2014-Sep-09 10:33N 54°33' E 007°27'1312.6
2014-Sep-09 09:33N 54°21' E 007°32'1212.1
2014-Sep-09 08:33N 54°11' E 007°44'1211.8
2014-Sep-09 07:33N 54°04' E 007°60'1212.0
2014-Sep-09 06:33N 53°60' E 008°19'1414.4
2014-Sep-09 05:33N 53°54' E 008°41'1414.4
2014-Sep-09 04:33N 53°53' E 009°06'1312.8
2014-Sep-09 03:31N 53°45' E 009°24'1313.6
2014-Sep-09 02:33N 53°35' E 009°38'1110.6
2014-Sep-09 01:33N 53°33' E 009°55'1 1.2
2014-Sep-09 00:33N 53°32' E 009°57'0 0.0
2014-Sep-08 23:33N 53°32' E 009°57'0 0.0
2014-Sep-08 22:33N 53°32' E 009°57'0 0.0
2014-Sep-08 21:33N 53°32' E 009°57'2 1.6
2014-Sep-08 20:33N 53°31' E 009°56'0 0.1
2014-Sep-08 19:33N 53°31' E 009°56'0 0.0
2014-Sep-08 18:33N 53°31' E 009°56'0 0.0
2014-Sep-08 17:33N 53°31' E 009°56'0 0.0
2014-Sep-08 16:33N 53°31' E 009°56'2 1.9
2014-Sep-08 15:33N 53°32' E 009°54'0 0.1
2014-Sep-08 14:33N 53°32' E 009°55'0 0.0
2014-Sep-08 13:27N 53°32' E 009°55'0 0.0
2014-Sep-08 12:33N 53°32' E 009°55'0 0.0
2014-Sep-08 11:33N 53°32' E 009°55'0 0.0
2014-Sep-08 10:33N 53°32' E 009°55'0 0.0
2014-Sep-08 09:33N 53°32' E 009°55'0 0.0
2014-Sep-08 08:33N 53°32' E 009°55'0 0.0
2014-Sep-08 07:33N 53°32' E 009°55'0 0.0
2014-Sep-08 06:33N 53°32' E 009°55'0 0.0
2014-Sep-08 05:33N 53°32' E 009°55'2 1.6
2014-Sep-08 04:33N 53°32' E 009°57'0 0.3
2014-Sep-08 03:33N 53°32' E 009°58'0 0.0
2014-Sep-08 02:30N 53°32' E 009°58'0 0.0
2014-Sep-08 01:30N 53°32' E 009°58'0 0.0
2014-Sep-08 00:30N 53°32' E 009°58'0 0.0
2014-Sep-07 23:33N 53°32' E 009°58'0 0.0
2014-Sep-07 22:30N 53°32' E 009°58'0 0.0
2014-Sep-07 21:33N 53°32' E 009°58'0 0.0
2014-Sep-07 20:30N 53°32' E 009°58'0 0.0
2014-Sep-07 19:30N 53°32' E 009°58'0 0.0
2014-Sep-07 18:30N 53°32' E 009°58'0 0.0
2014-Sep-07 17:33N 53°32' E 009°58'0 0.0
2014-Sep-07 16:30N 53°32' E 009°58'0 0.0
2014-Sep-07 15:30N 53°32' E 009°58'0 0.0
2014-Sep-07 14:33N 53°32' E 009°58'0 0.0
2014-Sep-07 13:33N 53°32' E 009°58'0 0.0
2014-Sep-07 12:33N 53°32' E 009°58'0 0.0
2014-Sep-07 11:30N 53°32' E 009°58'0 0.0
2014-Sep-07 10:30N 53°32' E 009°58'0 0.0
2014-Sep-07 09:30N 53°32' E 009°58'0 0.0
2014-Sep-07 08:33N 53°32' E 009°58'0 0.0
2014-Sep-07 07:33N 53°32' E 009°58'0 0.0
2014-Sep-07 06:30N 53°32' E 009°58'0 0.0
2014-Sep-07 05:30N 53°32' E 009°58'0 0.0
2014-Sep-07 04:30N 53°32' E 009°58'0 0.0
2014-Sep-07 03:30N 53°32' E 009°58'0 0.0
2014-Sep-07 02:18N 53°32' E 009°58'  

Dump ship's entire track history